createdAt,value
2019-05-11T00:00:37.513Z,90.88
2019-05-11T00:01:37.492Z,90.78
2019-05-11T00:02:37.504Z,90.30
2019-05-11T00:03:37.511Z,90.49
2019-05-11T00:04:37.520Z,90.39
2019-05-11T00:05:37.529Z,90.30
2019-05-11T00:06:37.534Z,90.49
2019-05-11T00:07:37.541Z,90.30
2019-05-11T00:08:37.553Z,90.39
2019-05-11T00:09:37.559Z,90.49
2019-05-11T00:10:37.565Z,90.39
2019-05-11T00:11:37.579Z,90.39
2019-05-11T00:12:37.582Z,90.68
2019-05-11T00:13:37.590Z,90.49
2019-05-11T00:14:37.607Z,90.68
2019-05-11T00:15:37.606Z,90.78
2019-05-11T00:16:37.616Z,90.68
2019-05-11T00:17:37.624Z,90.92
2019-05-11T00:18:37.636Z,90.54
2019-05-11T00:19:37.641Z,90.35
2019-05-11T00:20:37.650Z,90.45
2019-05-11T00:21:37.654Z,90.35
2019-05-11T00:22:37.673Z,90.25
2019-05-11T00:23:37.674Z,90.25
2019-05-11T00:24:37.676Z,90.45
2019-05-11T00:25:37.687Z,90.73
2019-05-11T00:26:37.695Z,90.73
2019-05-11T00:27:37.702Z,90.59
2019-05-11T00:28:37.713Z,90.50
2019-05-11T00:29:37.724Z,90.69
2019-05-11T00:30:37.725Z,90.31
2019-05-11T00:31:37.733Z,90.31
2019-05-11T00:32:37.744Z,90.69
2019-05-11T00:33:37.751Z,90.59
2019-05-11T00:34:37.757Z,91.07
2019-05-11T00:35:37.766Z,91.26
2019-05-11T00:36:37.772Z,91.26
2019-05-11T00:37:37.794Z,91.74
2019-05-11T00:38:37.789Z,92.12
2019-05-11T00:39:37.794Z,91.93
2019-05-11T00:40:37.806Z,92.31
2019-05-11T00:41:37.814Z,92.02
2019-05-11T00:42:37.821Z,91.64
2019-05-11T00:43:37.828Z,91.36
2019-05-11T00:44:37.841Z,91.26
2019-05-11T00:45:37.846Z,91.26
2019-05-11T00:46:37.863Z,91.36
2019-05-11T00:47:37.859Z,91.74
2019-05-11T00:48:37.894Z,91.16
2019-05-11T00:49:37.877Z,91.36
2019-05-11T00:50:39.959Z,91.07
2019-05-11T00:51:37.892Z,90.78
2019-05-11T00:52:37.900Z,90.50
2019-05-11T00:53:37.908Z,90.78
2019-05-11T00:54:37.920Z,90.73
2019-05-11T00:55:37.930Z,90.83
2019-05-11T00:56:37.935Z,90.73
2019-05-11T00:57:37.944Z,91.41
2019-05-11T00:58:37.948Z,91.12
2019-05-11T00:59:37.957Z,91.88
2019-05-11T01:00:37.966Z,91.88
2019-05-11T01:01:37.973Z,92.26
2019-05-11T01:02:37.994Z,92.36
2019-05-11T01:03:37.988Z,92.12
2019-05-11T01:04:37.995Z,91.31
2019-05-11T01:05:38.027Z,90.55
2019-05-11T01:06:38.022Z,90.26
2019-05-11T01:07:38.036Z,90.17
2019-05-11T01:08:38.026Z,89.88
2019-05-11T01:09:38.039Z,89.50
2019-05-11T01:10:41.999Z,89.40
2019-05-11T01:11:38.049Z,89.02
2019-05-11T01:12:38.062Z,89.40
2019-05-11T01:13:38.064Z,89.31
2019-05-11T01:14:38.074Z,89.40
2019-05-11T01:15:38.079Z,89.78
2019-05-11T01:16:38.089Z,89.40
2019-05-11T01:17:38.101Z,89.31
2019-05-11T01:18:38.107Z,89.69
2019-05-11T01:19:38.111Z,89.97
2019-05-11T01:20:38.128Z,90.07
2019-05-11T01:21:38.128Z,90.07
2019-05-11T01:22:38.135Z,89.97
2019-05-11T01:23:38.145Z,89.21
2019-05-11T01:24:38.151Z,89.78
2019-05-11T01:25:38.158Z,89.97
2019-05-11T01:26:38.172Z,90.17
2019-05-11T01:27:38.174Z,89.69
2019-05-11T01:28:38.186Z,90.36
2019-05-11T01:29:38.197Z,89.97
2019-05-11T01:30:38.861Z,90.64
2019-05-11T01:31:38.203Z,90.17
2019-05-11T01:32:38.226Z,91.12
2019-05-11T01:33:38.221Z,91.02
2019-05-11T01:34:38.252Z,91.12
2019-05-11T01:35:38.258Z,91.69
2019-05-11T01:36:38.242Z,91.02
2019-05-11T01:37:38.252Z,91.12
2019-05-11T01:38:38.259Z,91.50
2019-05-11T01:39:38.269Z,91.60
2019-05-11T01:40:38.275Z,91.21
2019-05-11T01:41:38.292Z,90.73
2019-05-11T01:42:38.289Z,90.64
2019-05-11T01:43:38.298Z,90.55
2019-05-11T01:44:38.309Z,90.93
2019-05-11T01:45:38.313Z,90.55
2019-05-11T01:46:38.330Z,90.55
2019-05-11T01:47:38.328Z,90.55
2019-05-11T01:48:38.333Z,90.55
2019-05-11T01:49:38.342Z,90.45
2019-05-11T01:50:38.350Z,90.17
2019-05-11T01:51:38.347Z,90.45
2019-05-11T01:52:38.380Z,90.64
2019-05-11T01:53:38.371Z,90.93
2019-05-11T01:54:38.373Z,91.21
2019-05-11T01:55:38.375Z,90.50
2019-05-11T01:56:38.398Z,91.21
2019-05-11T01:57:38.393Z,90.88
2019-05-11T01:58:38.412Z,90.50
2019-05-11T01:59:38.407Z,90.31
2019-05-11T02:00:38.424Z,90.31
2019-05-11T02:01:38.426Z,90.21
2019-05-11T02:02:38.441Z,90.31
2019-05-11T02:03:38.438Z,90.31
2019-05-11T02:04:38.455Z,90.11
2019-05-11T02:05:38.460Z,90.50
2019-05-11T02:06:38.473Z,90.21
2019-05-11T02:07:38.468Z,90.21
2019-05-11T02:08:38.479Z,90.11
2019-05-11T02:09:38.487Z,90.11
2019-05-11T02:10:38.495Z,90.26
2019-05-11T02:11:38.503Z,90.36
2019-05-11T02:12:38.508Z,90.17
2019-05-11T02:13:38.578Z,90.50
2019-05-11T02:14:38.538Z,90.59
2019-05-11T02:15:38.537Z,90.31
2019-05-11T02:16:38.543Z,90.21
2019-05-11T02:17:38.547Z,90.50
2019-05-11T02:18:38.557Z,90.59
2019-05-11T02:19:38.561Z,90.69
2019-05-11T02:20:38.573Z,91.26
2019-05-11T02:21:38.581Z,90.97
2019-05-11T02:22:38.591Z,90.78
2019-05-11T02:23:38.597Z,90.88
2019-05-11T02:24:38.603Z,90.78
2019-05-11T02:25:38.612Z,90.50
2019-05-11T02:26:38.618Z,90.78
2019-05-11T02:27:38.628Z,90.73
2019-05-11T02:28:38.636Z,90.55
2019-05-11T02:29:41.453Z,90.55
2019-05-11T02:30:38.653Z,91.55
2019-05-11T02:31:38.659Z,91.41
2019-05-11T02:32:38.667Z,91.60
2019-05-11T02:33:38.676Z,91.93
2019-05-11T02:34:38.683Z,91.83
2019-05-11T02:35:38.689Z,91.74
2019-05-11T02:36:38.699Z,91.93
2019-05-11T02:37:38.711Z,92.02
2019-05-11T02:38:38.715Z,91.64
2019-05-11T02:39:38.721Z,91.16
2019-05-11T02:40:38.728Z,91.26
2019-05-11T02:41:38.746Z,91.55
2019-05-11T02:42:38.746Z,91.83
2019-05-11T02:43:38.750Z,91.26
2019-05-11T02:44:38.759Z,91.07
2019-05-11T02:45:38.762Z,91.36
2019-05-11T02:46:38.774Z,91.36
2019-05-11T02:47:38.827Z,91.64
2019-05-11T02:48:38.794Z,91.16
2019-05-11T02:49:38.798Z,90.97
2019-05-11T02:50:38.807Z,91.36
2019-05-11T02:51:38.823Z,91.16
2019-05-11T02:52:38.825Z,91.64
2019-05-11T02:53:38.826Z,91.16
2019-05-11T02:54:38.835Z,91.07
2019-05-11T02:55:38.846Z,91.16
2019-05-11T02:56:38.851Z,90.97
2019-05-11T02:57:38.863Z,90.69
2019-05-11T02:58:38.869Z,90.69
2019-05-11T02:59:38.875Z,91.26
2019-05-11T03:00:38.884Z,91.07
2019-05-11T03:01:38.892Z,91.07
2019-05-11T03:02:38.900Z,90.97
2019-05-11T03:03:38.914Z,90.50
2019-05-11T03:04:38.915Z,90.78
2019-05-11T03:05:38.926Z,90.78
2019-05-11T03:06:38.931Z,90.40
2019-05-11T03:07:38.938Z,90.88
2019-05-11T03:08:38.943Z,90.59
2019-05-11T03:09:38.966Z,90.97
2019-05-11T03:10:38.961Z,91.07
2019-05-11T03:11:53.964Z,91.45
2019-05-11T03:12:38.975Z,91.45
2019-05-11T03:13:38.983Z,91.36
2019-05-11T03:14:38.992Z,91.45
2019-05-11T03:15:38.998Z,91.26
2019-05-11T03:16:39.010Z,91.16
2019-05-11T03:17:39.014Z,91.26
2019-05-11T03:18:39.022Z,91.74
2019-05-11T03:19:39.029Z,91.45
2019-05-11T03:20:39.039Z,91.16
2019-05-11T03:21:39.046Z,91.16
2019-05-11T03:22:39.055Z,91.36
2019-05-11T03:23:39.060Z,91.64
2019-05-11T03:24:39.067Z,91.55
2019-05-11T03:25:39.078Z,91.74
2019-05-11T03:26:39.085Z,91.83
2019-05-11T03:27:39.093Z,91.74
2019-05-11T03:28:39.100Z,92.31
2019-05-11T03:29:39.102Z,92.12
2019-05-11T03:30:39.117Z,91.07
2019-05-11T03:31:39.314Z,91.36
2019-05-11T03:32:39.139Z,91.55
2019-05-11T03:33:39.141Z,91.30
2019-05-11T03:34:39.148Z,91.83
2019-05-11T03:35:39.151Z,91.83
2019-05-11T03:36:39.161Z,91.59
2019-05-11T03:37:39.172Z,91.45
2019-05-11T03:38:39.176Z,91.78
2019-05-11T03:39:39.187Z,91.74
2019-05-11T03:40:39.225Z,91.69
2019-05-11T03:41:39.209Z,91.78
2019-05-11T03:42:39.209Z,91.88
2019-05-11T03:43:39.214Z,91.69
2019-05-11T03:44:39.226Z,91.88
2019-05-11T03:45:39.233Z,91.97
2019-05-11T03:46:39.242Z,91.97
2019-05-11T03:47:39.249Z,91.97
2019-05-11T03:48:39.258Z,91.30
2019-05-11T03:49:39.263Z,91.88
2019-05-11T03:50:39.265Z,91.97
2019-05-11T03:51:39.278Z,91.88
2019-05-11T03:52:39.289Z,91.97
2019-05-11T03:53:39.297Z,91.88
2019-05-11T03:54:39.299Z,92.36
2019-05-11T03:55:39.305Z,92.45
2019-05-11T03:56:39.317Z,92.36
2019-05-11T03:57:39.336Z,92.26
2019-05-11T03:58:39.332Z,92.36
2019-05-11T03:59:39.342Z,92.16
2019-05-11T04:00:39.352Z,92.26
2019-05-11T04:01:39.357Z,92.45
2019-05-11T04:02:39.362Z,92.45
2019-05-11T04:03:39.374Z,92.26
2019-05-11T04:04:39.396Z,92.55
2019-05-11T04:05:39.392Z,92.83
2019-05-11T04:06:39.398Z,93.60
2019-05-11T04:07:39.398Z,92.83
2019-05-11T04:08:39.414Z,92.83
2019-05-11T04:09:39.427Z,92.83
2019-05-11T04:10:39.423Z,92.93
2019-05-11T04:11:39.434Z,92.93
2019-05-11T04:12:39.444Z,93.21
2019-05-11T04:13:39.451Z,92.36
2019-05-11T04:14:39.467Z,92.74
2019-05-11T04:15:39.469Z,92.07
2019-05-11T04:16:46.653Z,92.45
2019-05-11T04:18:43.493Z,92.16
2019-05-11T04:19:43.495Z,92.74
2019-05-11T04:21:47.979Z,92.55
2019-05-11T04:22:47.981Z,92.74
2019-05-11T04:23:47.994Z,92.36
2019-05-11T04:24:47.985Z,92.40
2019-05-11T04:25:47.995Z,92.02
2019-05-11T04:26:48.010Z,92.83
2019-05-11T04:27:48.009Z,93.16
2019-05-11T04:28:48.024Z,92.97
2019-05-11T04:29:48.023Z,92.69
2019-05-11T04:30:48.037Z,93.55
2019-05-11T04:31:48.040Z,93.55
2019-05-11T04:32:48.049Z,92.79
2019-05-11T04:33:48.061Z,92.50
2019-05-11T04:34:48.066Z,92.59
2019-05-11T04:35:48.072Z,92.21
2019-05-11T04:36:48.083Z,93.26
2019-05-11T04:37:48.087Z,92.97
2019-05-11T04:38:48.098Z,92.97
2019-05-11T04:39:48.101Z,92.97
2019-05-11T04:40:48.112Z,92.97
2019-05-11T04:41:48.122Z,92.88
2019-05-11T04:42:54.798Z,92.59
2019-05-11T04:43:48.145Z,93.26
2019-05-11T04:44:52.126Z,93.36
2019-05-11T04:45:48.151Z,93.55
2019-05-11T04:46:48.158Z,93.36
2019-05-11T04:47:48.243Z,93.65
2019-05-11T04:48:48.174Z,93.74
2019-05-11T04:49:48.182Z,93.74
2019-05-11T04:50:48.195Z,94.02
2019-05-11T04:51:48.199Z,93.93
2019-05-11T04:52:48.205Z,93.84
2019-05-11T04:53:48.214Z,93.84
2019-05-11T04:54:48.226Z,93.74
2019-05-11T04:55:48.233Z,93.65
2019-05-11T04:56:48.235Z,93.36
2019-05-11T04:57:48.251Z,93.55
2019-05-11T04:58:48.255Z,93.26
2019-05-11T04:59:48.261Z,93.36
2019-05-11T05:00:48.270Z,93.26
2019-05-11T05:01:48.281Z,93.40
2019-05-11T05:02:48.282Z,93.50
2019-05-11T05:03:54.128Z,93.60
2019-05-11T05:04:48.300Z,93.40
2019-05-11T05:05:48.313Z,93.60
2019-05-11T05:06:59.386Z,93.40
2019-05-11T05:07:50.509Z,93.60
2019-05-11T05:08:48.333Z,93.31
2019-05-11T05:09:48.340Z,93.88
2019-05-11T05:10:52.310Z,93.69
2019-05-11T05:11:48.355Z,93.79
2019-05-11T05:12:51.360Z,93.88
2019-05-11T05:13:48.373Z,94.07
2019-05-11T05:14:48.380Z,94.26
2019-05-11T05:15:48.387Z,93.69
2019-05-11T05:16:48.396Z,93.40
2019-05-11T05:17:48.403Z,93.21
2019-05-11T05:18:48.412Z,93.31
2019-05-11T05:19:48.423Z,93.40
2019-05-11T05:20:48.431Z,92.74
2019-05-11T05:21:48.438Z,92.83
2019-05-11T05:22:48.448Z,92.83
2019-05-11T05:23:48.452Z,93.50
2019-05-11T05:24:48.460Z,93.60
2019-05-11T05:25:48.471Z,93.35
2019-05-11T05:26:48.478Z,93.64
2019-05-11T05:27:48.549Z,93.50
2019-05-11T05:28:48.494Z,93.45
2019-05-11T05:29:48.508Z,93.45
2019-05-11T05:30:48.510Z,93.26
2019-05-11T05:31:48.517Z,93.55
2019-05-11T05:32:48.527Z,93.74
2019-05-11T05:33:48.538Z,92.78
2019-05-11T05:34:48.543Z,92.97
2019-05-11T05:35:48.550Z,92.78
2019-05-11T05:36:48.566Z,92.59
2019-05-11T05:37:48.565Z,92.88
2019-05-11T05:38:48.574Z,92.88
2019-05-11T05:39:48.583Z,93.07
2019-05-11T05:40:48.593Z,93.55
2019-05-11T05:41:56.449Z,93.45
2019-05-11T05:42:48.614Z,93.45
2019-05-11T05:43:48.614Z,93.55
2019-05-11T05:44:48.640Z,93.26
2019-05-11T05:45:48.630Z,93.45
2019-05-11T05:46:48.644Z,93.45
2019-05-11T05:47:48.653Z,93.74
2019-05-11T05:48:48.655Z,93.55
2019-05-11T05:49:48.658Z,93.35
2019-05-11T05:50:48.673Z,93.55
2019-05-11T05:51:48.681Z,93.45
2019-05-11T05:52:48.687Z,93.74
2019-05-11T05:53:48.697Z,93.35
2019-05-11T05:54:48.711Z,93.84
2019-05-11T05:55:48.713Z,94.12
2019-05-11T05:56:48.722Z,93.93
2019-05-11T05:57:48.733Z,94.21
2019-05-11T05:58:48.738Z,94.89
2019-05-11T05:59:48.748Z,94.41
2019-05-11T06:00:48.754Z,94.60
2019-05-11T06:01:48.764Z,94.70
2019-05-11T06:02:48.772Z,94.60
2019-05-11T06:03:48.776Z,94.70
2019-05-11T06:04:48.786Z,94.98
2019-05-11T06:05:48.794Z,94.98
2019-05-11T06:06:48.804Z,95.27
2019-05-11T06:07:48.811Z,95.56
2019-05-11T06:08:48.817Z,95.27
2019-05-11T06:09:48.824Z,95.27
2019-05-11T06:10:48.838Z,95.36
2019-05-11T06:11:48.841Z,95.75
2019-05-11T06:12:48.854Z,95.27
2019-05-11T06:13:48.860Z,95.27
2019-05-11T06:14:48.863Z,95.46
2019-05-11T06:15:48.875Z,95.27
2019-05-11T06:16:48.883Z,95.27
2019-05-11T06:17:48.890Z,95.17
2019-05-11T06:18:48.901Z,95.17
2019-05-11T06:19:48.907Z,95.46
2019-05-11T06:20:48.915Z,94.70
2019-05-11T06:21:48.926Z,94.41
2019-05-11T06:22:48.934Z,94.60
2019-05-11T06:23:48.936Z,94.26
2019-05-11T06:24:48.952Z,93.98
2019-05-11T06:25:48.961Z,94.26
2019-05-11T06:26:48.966Z,93.69
2019-05-11T06:27:48.970Z,93.88
2019-05-11T06:28:48.982Z,93.69
2019-05-11T06:29:48.986Z,93.69
2019-05-11T06:30:48.995Z,93.59
2019-05-11T06:31:49.005Z,93.30
2019-05-11T06:32:49.014Z,92.92
2019-05-11T06:33:49.021Z,92.83
2019-05-11T06:34:49.032Z,92.73
2019-05-11T06:35:49.039Z,92.97
2019-05-11T06:36:49.043Z,92.63
2019-05-11T06:37:49.057Z,92.01
2019-05-11T06:38:49.066Z,91.97
2019-05-11T06:39:49.071Z,92.30
2019-05-11T06:40:49.079Z,92.30
2019-05-11T06:41:49.090Z,92.11
2019-05-11T06:42:49.099Z,91.72
2019-05-11T06:44:01.234Z,92.21
2019-05-11T06:44:49.107Z,92.11
2019-05-11T06:45:49.122Z,91.53
2019-05-11T06:46:49.130Z,91.34
2019-05-11T06:47:49.163Z,91.53
2019-05-11T06:48:49.154Z,91.39
2019-05-11T06:49:49.152Z,90.48
2019-05-11T06:50:49.259Z,90.33
2019-05-11T06:51:49.184Z,90.62
2019-05-11T06:52:49.187Z,90.72
2019-05-11T06:53:49.190Z,90.53
2019-05-11T06:54:49.192Z,90.14
2019-05-11T06:55:49.207Z,90.23
2019-05-11T06:56:49.216Z,90.05
2019-05-11T06:57:49.222Z,89.95
2019-05-11T06:58:49.229Z,89.28
2019-05-11T06:59:49.256Z,90.53
2019-05-11T07:00:49.250Z,90.23
2019-05-11T07:01:49.264Z,90.23
2019-05-11T07:02:49.274Z,90.33
2019-05-11T07:03:49.275Z,89.57
2019-05-11T07:04:49.289Z,90.05
2019-05-11T07:05:49.296Z,89.66
2019-05-11T07:06:49.315Z,90.62
2019-05-11T07:07:49.313Z,89.57
2019-05-11T07:08:49.328Z,90.14
2019-05-11T07:09:49.326Z,90.91
2019-05-11T07:10:49.340Z,90.91
2019-05-11T07:11:49.404Z,90.62
2019-05-11T07:12:49.356Z,89.28
2019-05-11T07:13:49.361Z,89.28
2019-05-11T07:14:49.371Z,89.28
2019-05-11T07:15:49.381Z,88.90
2019-05-11T07:16:49.394Z,88.90
2019-05-11T07:17:49.397Z,89.37
2019-05-11T07:18:49.406Z,88.80
2019-05-11T07:19:49.426Z,89.37
2019-05-11T07:20:50.961Z,89.66
2019-05-11T07:21:49.428Z,89.86
2019-05-11T07:22:49.445Z,89.76
2019-05-11T07:23:49.444Z,89.86
2019-05-11T07:24:49.461Z,88.99
2019-05-11T07:25:49.472Z,89.18
2019-05-11T07:26:49.480Z,88.99
2019-05-11T07:27:49.485Z,89.47
2019-05-11T07:28:49.496Z,89.09
2019-05-11T07:29:49.505Z,90.05
2019-05-11T07:30:49.513Z,90.57
2019-05-11T07:31:49.517Z,90.28
2019-05-11T07:32:49.532Z,87.98
2019-05-11T07:33:49.541Z,88.08
2019-05-11T07:34:49.550Z,88.17
2019-05-11T07:35:49.560Z,88.17
2019-05-11T07:36:49.564Z,87.64
2019-05-11T07:37:49.575Z,87.74
2019-05-11T07:38:49.584Z,86.78
2019-05-11T07:39:49.598Z,86.78
2019-05-11T07:40:49.601Z,86.40
2019-05-11T07:41:49.616Z,86.40
2019-05-11T07:42:49.628Z,85.63
2019-05-11T07:43:49.631Z,84.95
2019-05-11T07:44:49.639Z,85.63
2019-05-11T07:45:49.643Z,85.63
2019-05-11T07:46:49.655Z,86.88
2019-05-11T07:47:49.663Z,85.78
2019-05-11T07:48:49.674Z,84.86
2019-05-11T07:49:49.681Z,84.67
2019-05-11T07:50:49.691Z,83.76
2019-05-11T07:51:49.703Z,83.00
2019-05-11T07:52:49.710Z,83.95
2019-05-11T07:53:49.725Z,84.63
2019-05-11T07:54:52.856Z,84.91
2019-05-11T07:55:49.752Z,83.67
2019-05-11T07:56:49.748Z,83.67
2019-05-11T07:57:49.757Z,84.53
2019-05-11T07:58:49.767Z,84.05
2019-05-11T07:59:49.771Z,85.11
2019-05-11T08:00:49.786Z,83.95
2019-05-11T08:01:49.804Z,82.62
2019-05-11T08:02:49.801Z,83.38
2019-05-11T08:03:49.803Z,84.05
2019-05-11T08:04:49.821Z,83.19
2019-05-11T08:05:49.829Z,83.48
2019-05-11T08:06:49.839Z,84.82
2019-05-11T08:07:49.846Z,84.15
2019-05-11T08:08:49.858Z,84.63
2019-05-11T08:09:49.869Z,83.95
2019-05-11T08:10:49.875Z,84.05
2019-05-11T08:11:49.876Z,82.81
2019-05-11T08:12:49.887Z,83.48
2019-05-11T08:13:49.897Z,82.85
2019-05-11T08:14:58.822Z,84.28
2019-05-11T08:15:49.918Z,84.95
2019-05-11T08:16:49.928Z,84.38
2019-05-11T08:17:49.938Z,83.04
2019-05-11T08:18:49.950Z,83.52
2019-05-11T08:19:49.953Z,83.04
2019-05-11T08:20:49.970Z,83.09
2019-05-11T08:21:49.978Z,83.00
2019-05-11T08:22:49.982Z,82.52
2019-05-11T08:23:49.990Z,82.62
2019-05-11T08:24:50.002Z,83.48
2019-05-11T08:25:50.010Z,84.00
2019-05-11T08:26:50.021Z,84.25
2019-05-11T08:27:50.032Z,84.34
2019-05-11T08:28:50.037Z,83.09
2019-05-11T08:29:50.049Z,81.95
2019-05-11T08:30:50.056Z,83.58
2019-05-11T08:31:50.071Z,84.34
2019-05-11T08:32:50.081Z,83.67
2019-05-11T08:33:50.084Z,84.38
2019-05-11T08:34:50.093Z,85.15
2019-05-11T08:35:50.108Z,83.67
2019-05-11T08:36:50.111Z,82.04
2019-05-11T08:37:50.120Z,82.71
2019-05-11T08:38:50.132Z,82.04
2019-05-11T08:39:50.136Z,82.14
2019-05-11T08:40:50.148Z,82.04
2019-05-11T08:41:50.156Z,82.81
2019-05-11T08:42:50.165Z,82.81
2019-05-11T08:43:50.177Z,81.27
2019-05-11T08:44:50.189Z,80.79
2019-05-11T08:45:50.196Z,81.46
2019-05-11T08:46:50.203Z,81.46
2019-05-11T08:47:50.209Z,81.85
2019-05-11T08:48:50.234Z,82.37
2019-05-11T08:49:50.233Z,81.41
2019-05-11T08:50:50.242Z,80.83
2019-05-11T08:51:50.249Z,79.97
2019-05-11T08:52:50.256Z,80.35
2019-05-11T08:53:50.267Z,80.26
2019-05-11T08:54:50.289Z,79.39
2019-05-11T08:55:50.288Z,79.21
2019-05-11T08:56:50.301Z,78.53
2019-05-11T08:57:50.314Z,79.68
2019-05-11T08:58:50.317Z,79.39
2019-05-11T08:59:50.320Z,79.30
2019-05-11T09:00:50.330Z,79.59
2019-05-11T09:01:50.341Z,78.82
2019-05-11T09:02:51.063Z,78.25
2019-05-11T09:03:50.359Z,77.67
2019-05-11T09:04:50.367Z,77.19
2019-05-11T09:05:50.381Z,77.67
2019-05-11T09:06:50.388Z,77.95
2019-05-11T09:07:50.400Z,78.63
2019-05-11T09:08:50.403Z,78.15
2019-05-11T09:09:50.423Z,77.63
2019-05-11T09:10:50.531Z,78.05
2019-05-11T09:11:50.538Z,77.48
2019-05-11T09:12:50.448Z,77.38
2019-05-11T09:13:50.454Z,78.82
2019-05-11T09:14:50.461Z,78.05
2019-05-11T09:15:50.465Z,78.15
2019-05-11T09:16:50.482Z,77.67
2019-05-11T09:17:50.491Z,77.67
2019-05-11T09:18:50.505Z,76.81
2019-05-11T09:19:50.514Z,78.44
2019-05-11T09:20:50.520Z,78.77
2019-05-11T09:21:50.528Z,77.33
2019-05-11T09:22:50.643Z,77.19
2019-05-11T09:23:50.545Z,76.52
2019-05-11T09:24:50.557Z,78.28
2019-05-11T09:25:50.574Z,77.71
2019-05-11T09:26:50.573Z,79.34
2019-05-11T09:27:50.584Z,77.71
2019-05-11T09:28:50.592Z,77.23
2019-05-11T09:29:50.600Z,77.23
2019-05-11T09:30:50.609Z,76.65
2019-05-11T09:31:50.620Z,78.19
2019-05-11T09:32:50.736Z,76.07
2019-05-11T09:33:50.643Z,75.60
2019-05-11T09:34:50.680Z,75.40
2019-05-11T09:35:53.544Z,76.56
2019-05-11T09:36:50.775Z,75.98
2019-05-11T09:37:50.779Z,75.70
2019-05-11T09:38:50.687Z,74.54
2019-05-11T09:39:50.702Z,75.31
2019-05-11T09:40:50.818Z,76.50
2019-05-11T09:41:50.720Z,75.21
2019-05-11T09:42:50.730Z,74.44
2019-05-11T09:43:50.736Z,72.72
2019-05-11T09:44:50.749Z,73.00
2019-05-11T09:45:51.966Z,74.44
2019-05-11T09:46:50.777Z,75.02
2019-05-11T09:47:50.776Z,75.40
2019-05-11T09:48:50.780Z,74.06
2019-05-11T09:49:51.177Z,75.40
2019-05-11T09:50:50.806Z,73.39
2019-05-11T09:51:50.815Z,73.58
2019-05-11T09:52:50.925Z,73.87
2019-05-11T09:53:50.842Z,73.49
2019-05-11T09:54:50.840Z,72.14
2019-05-11T09:55:50.851Z,73.33
2019-05-11T09:56:50.867Z,73.24
2019-05-11T09:57:50.875Z,73.43
2019-05-11T09:58:50.883Z,73.91
2019-05-11T09:59:50.892Z,73.94
2019-05-11T10:00:50.904Z,73.43
2019-05-11T10:01:50.915Z,72.18
2019-05-11T10:02:51.030Z,73.04
2019-05-11T10:03:50.933Z,72.47
2019-05-11T10:04:50.940Z,73.43
2019-05-11T10:05:50.952Z,71.89
2019-05-11T10:06:50.960Z,72.95
2019-05-11T10:07:50.965Z,74.58
2019-05-11T10:08:50.980Z,74.68
2019-05-11T10:09:50.994Z,73.52
2019-05-11T10:10:51.003Z,72.47
2019-05-11T10:11:51.010Z,72.43
2019-05-11T10:12:52.982Z,74.48
2019-05-11T10:13:51.033Z,76.12
2019-05-11T10:14:51.041Z,74.87
2019-05-11T10:16:03.759Z,75.25
2019-05-11T10:16:51.061Z,74.62
2019-05-11T10:17:51.073Z,73.85
2019-05-11T10:18:51.084Z,73.66
2019-05-11T10:19:51.272Z,72.69
2019-05-11T10:20:51.122Z,72.89
2019-05-11T10:21:51.113Z,71.55
2019-05-11T10:22:51.121Z,72.31
2019-05-11T10:23:51.130Z,73.94
2019-05-11T10:24:51.137Z,72.99
2019-05-11T10:25:51.149Z,72.69
2019-05-11T10:26:51.161Z,72.12
2019-05-11T10:27:51.174Z,73.46
2019-05-11T10:28:51.179Z,74.52
2019-05-11T10:29:51.191Z,74.62
2019-05-11T10:30:51.199Z,74.52
2019-05-11T10:31:51.206Z,71.93
2019-05-11T10:32:51.217Z,71.70
2019-05-11T10:33:51.235Z,72.08
2019-05-11T10:34:51.244Z,71.98
2019-05-11T10:35:51.254Z,72.47
2019-05-11T10:36:51.261Z,71.98
2019-05-11T10:37:51.270Z,72.47
2019-05-11T10:38:51.281Z,72.08
2019-05-11T10:39:51.286Z,73.72
2019-05-11T10:40:51.305Z,74.10
2019-05-11T10:41:51.313Z,74.77
2019-05-11T10:42:51.323Z,74.35
2019-05-11T10:43:51.332Z,73.97
2019-05-11T10:44:51.343Z,74.26
2019-05-11T10:45:51.350Z,74.64
2019-05-11T10:46:51.359Z,75.89
2019-05-11T10:47:53.938Z,75.98
2019-05-11T10:48:51.377Z,75.12
2019-05-11T10:49:51.392Z,76.04
2019-05-11T10:50:51.402Z,77.13
2019-05-11T10:51:51.408Z,75.85
2019-05-11T10:52:51.416Z,75.75
2019-05-11T10:53:52.190Z,77.51
2019-05-11T10:54:51.449Z,77.09
2019-05-11T10:55:51.449Z,77.42
2019-05-11T10:56:51.457Z,77.23
2019-05-11T10:57:51.471Z,78.09
2019-05-11T10:58:51.477Z,77.23
2019-05-11T10:59:51.487Z,76.75
2019-05-11T11:00:51.499Z,75.70
2019-05-11T11:01:51.506Z,75.98
2019-05-11T11:02:51.515Z,75.95
2019-05-11T11:03:51.520Z,76.71
2019-05-11T11:04:51.536Z,76.71
2019-05-11T11:05:51.549Z,76.81
2019-05-11T11:06:51.560Z,78.05
2019-05-11T11:07:51.568Z,77.86
2019-05-11T11:08:51.576Z,77.38
2019-05-11T11:09:51.580Z,78.09
2019-05-11T11:10:51.588Z,77.42
2019-05-11T11:11:51.604Z,77.23
2019-05-11T11:12:51.622Z,76.75
2019-05-11T11:13:51.623Z,77.33
2019-05-11T11:14:51.629Z,77.04
2019-05-11T11:15:51.647Z,76.84
2019-05-11T11:16:51.651Z,77.51
2019-05-11T11:17:51.659Z,74.64
2019-05-11T11:18:51.667Z,76.37
2019-05-11T11:19:51.681Z,76.07
2019-05-11T11:20:51.687Z,77.42
2019-05-11T11:21:51.697Z,75.46
2019-05-11T11:22:51.709Z,73.93
2019-05-11T11:23:51.715Z,74.31
2019-05-11T11:24:51.830Z,74.31
2019-05-11T11:25:51.737Z,74.22
2019-05-11T11:26:51.747Z,74.60
2019-05-11T11:27:51.755Z,75.27
2019-05-11T11:28:51.763Z,75.33
2019-05-11T11:29:51.774Z,75.33
2019-05-11T11:30:51.787Z,76.00
2019-05-11T11:31:51.791Z,75.43
2019-05-11T11:32:51.796Z,75.77
2019-05-11T11:33:51.811Z,75.87
2019-05-11T11:34:51.820Z,76.77
2019-05-11T11:35:51.831Z,76.25
2019-05-11T11:36:51.839Z,75.96
2019-05-11T11:37:51.850Z,76.44
2019-05-11T11:38:51.861Z,77.78
2019-05-11T11:39:51.867Z,76.44
2019-05-11T11:40:51.877Z,76.25
2019-05-11T11:41:51.887Z,76.64
2019-05-11T11:42:51.897Z,76.73
2019-05-11T11:43:51.905Z,76.73
2019-05-11T11:44:51.913Z,76.35
2019-05-11T11:45:51.920Z,76.44
2019-05-11T11:46:55.140Z,76.15
2019-05-11T11:47:51.941Z,74.72
2019-05-11T11:48:51.948Z,74.52
2019-05-11T11:49:51.966Z,74.52
2019-05-11T11:50:51.970Z,73.09
2019-05-11T11:51:51.977Z,73.86
2019-05-11T11:52:51.985Z,74.05
2019-05-11T11:53:51.996Z,74.18
2019-05-11T11:54:52.015Z,72.99
2019-05-11T11:55:52.011Z,72.80
2019-05-11T11:56:52.021Z,73.22
2019-05-11T11:57:52.032Z,71.66
2019-05-11T11:58:52.045Z,71.94
2019-05-11T11:59:52.050Z,70.41
2019-05-11T12:00:52.060Z,71.02
2019-05-11T12:01:52.068Z,70.54
2019-05-11T12:02:52.082Z,70.83
2019-05-11T12:03:52.086Z,70.92
2019-05-11T12:04:52.099Z,72.27
2019-05-11T12:05:52.104Z,70.76
2019-05-11T12:06:52.115Z,69.04
2019-05-11T12:07:52.125Z,69.04
2019-05-11T12:08:52.130Z,68.37
2019-05-11T12:09:52.138Z,68.95
2019-05-11T12:10:52.152Z,68.95
2019-05-11T12:11:52.159Z,68.75
2019-05-11T12:12:52.269Z,69.04
2019-05-11T12:13:52.178Z,69.90
2019-05-11T12:14:52.288Z,68.66
2019-05-11T12:15:52.196Z,67.41
2019-05-11T12:17:04.090Z,68.37
2019-05-11T12:17:52.216Z,69.04
2019-05-11T12:18:52.228Z,69.71
2019-05-11T12:19:52.235Z,70.42
2019-05-11T12:20:52.242Z,70.32
2019-05-11T12:21:52.256Z,67.79
2019-05-11T12:22:52.263Z,69.46
2019-05-11T12:23:52.272Z,69.07
2019-05-11T12:24:52.283Z,68.12
2019-05-11T12:25:52.289Z,67.25
2019-05-11T12:26:52.301Z,67.73
2019-05-11T12:27:52.308Z,68.40
2019-05-11T12:28:52.317Z,68.91
2019-05-11T12:29:52.335Z,67.09
2019-05-11T12:30:52.339Z,67.38
2019-05-11T12:31:52.345Z,66.52
2019-05-11T12:32:52.354Z,65.56
2019-05-11T12:33:52.366Z,65.69
2019-05-11T12:34:52.378Z,66.10
2019-05-11T12:35:52.384Z,64.79
2019-05-11T12:36:52.396Z,64.92
2019-05-11T12:37:52.410Z,63.82
2019-05-11T12:38:52.415Z,62.77
2019-05-11T12:39:52.432Z,61.19
2019-05-11T12:40:52.439Z,62.90
2019-05-11T12:41:52.454Z,63.67
2019-05-11T12:42:52.461Z,63.45
2019-05-11T12:43:52.471Z,61.43
2019-05-11T12:44:52.481Z,62.84
2019-05-11T12:45:52.491Z,64.95
2019-05-11T12:46:52.503Z,64.76
2019-05-11T12:47:52.522Z,64.37
2019-05-11T12:48:52.525Z,64.53
2019-05-11T12:49:52.533Z,62.68
2019-05-11T12:50:52.544Z,64.98
2019-05-11T12:51:52.555Z,64.85
2019-05-11T12:52:52.569Z,66.19
2019-05-11T12:53:52.578Z,65.91
2019-05-11T12:54:52.592Z,65.52